createdAt,value
2019-04-25T00:02:07.730Z,57.77
2019-04-25T00:04:38.732Z,57.79
2019-04-25T00:07:09.466Z,57.53
2019-04-25T00:09:42.773Z,57.86
2019-04-25T00:12:13.853Z,57.87
2019-04-25T00:14:44.662Z,57.37
2019-04-25T00:17:15.319Z,57.72
2019-04-25T00:19:46.453Z,57.91
2019-04-25T00:22:18.636Z,57.86
2019-04-25T00:25:15.039Z,57.71
2019-04-25T00:27:38.235Z,58.17
2019-04-25T00:30:09.058Z,58.25
2019-04-25T00:32:41.247Z,57.40
2019-04-25T00:35:12.019Z,57.29
2019-04-25T00:37:44.335Z,57.43
2019-04-25T00:40:15.320Z,58.03
2019-04-25T00:42:46.249Z,58.20
2019-04-25T00:45:16.949Z,58.13
2019-04-25T00:47:47.752Z,58.49
2019-04-25T00:50:18.388Z,58.24
2019-04-25T00:52:48.982Z,58.16
2019-04-25T00:55:26.826Z,58.15
2019-04-25T00:57:53.689Z,58.34
2019-04-25T01:00:44.821Z,57.76
2019-04-25T01:03:17.283Z,57.73
2019-04-25T01:05:47.877Z,57.69
2019-04-25T01:08:18.466Z,58.47
2019-04-25T01:10:49.968Z,58.36
2019-04-25T01:13:22.318Z,58.55
2019-04-25T01:15:53.740Z,58.93
2019-04-25T01:18:25.226Z,58.03
2019-04-25T01:20:57.338Z,58.60
2019-04-25T01:23:27.985Z,58.50
2019-04-25T01:25:58.952Z,57.73
2019-04-25T01:28:29.732Z,57.83
2019-04-25T01:31:00.801Z,57.95
2019-04-25T01:33:31.359Z,58.11
2019-04-25T01:36:20.982Z,57.58
2019-04-25T01:38:56.142Z,58.41
2019-04-25T01:41:34.191Z,58.23
2019-04-25T01:44:06.753Z,58.14
2019-04-25T01:46:39.430Z,58.30
2019-04-25T01:49:09.993Z,58.20
2019-04-25T01:51:40.744Z,58.47
2019-04-25T01:54:11.403Z,57.95
2019-04-25T01:56:42.187Z,58.72
2019-04-25T01:59:13.502Z,58.58
2019-04-25T02:01:45.699Z,59.21
2019-04-25T02:04:16.356Z,58.67
2019-04-25T02:06:46.926Z,59.02
2019-04-25T02:09:17.516Z,58.55
2019-04-25T02:11:50.930Z,59.40
2019-04-25T02:14:21.548Z,59.44
2019-04-25T02:16:55.807Z,59.38
2019-04-25T02:19:26.383Z,58.96
2019-04-25T02:21:57.773Z,58.36
2019-04-25T02:24:28.636Z,58.46
2019-04-25T02:26:59.211Z,58.53
2019-04-25T02:29:30.173Z,58.64
2019-04-25T02:32:03.019Z,58.88
2019-04-25T02:34:34.566Z,58.45
2019-04-25T02:37:09.458Z,58.86
2019-04-25T02:39:38.234Z,59.40
2019-04-25T02:42:08.955Z,60.11
2019-04-25T02:44:41.361Z,59.63
2019-04-25T02:47:24.760Z,60.55
2019-04-25T02:50:07.087Z,60.13
2019-04-25T02:52:39.821Z,59.86
2019-04-25T02:55:15.947Z,58.98
2019-04-25T02:57:44.844Z,58.81
2019-04-25T03:00:25.864Z,59.52
2019-04-25T03:02:57.917Z,58.55
2019-04-25T03:05:29.756Z,58.59
2019-04-25T03:08:01.611Z,57.84
2019-04-25T03:10:34.847Z,57.66
2019-04-25T03:13:11.254Z,58.04
2019-04-25T03:15:37.929Z,57.67
2019-04-25T03:18:12.094Z,58.30
2019-04-25T03:20:45.381Z,58.86
2019-04-25T03:23:35.159Z,58.90
2019-04-25T03:26:06.613Z,58.64
2019-04-25T03:28:38.207Z,59.69
2019-04-25T03:31:15.177Z,59.21
2019-04-25T03:33:41.398Z,59.67
2019-04-25T03:36:11.996Z,59.26
2019-04-25T03:38:44.076Z,59.78
2019-04-25T03:41:14.852Z,59.60
2019-04-25T03:43:45.735Z,59.10
2019-04-25T03:46:16.446Z,59.33
2019-04-25T03:48:48.614Z,58.52
2019-04-25T03:51:19.189Z,58.51
2019-04-25T03:53:50.869Z,58.79
2019-04-25T03:56:21.460Z,58.82
2019-04-25T03:58:52.666Z,58.37
2019-04-25T04:01:25.594Z,58.25
2019-04-25T04:03:56.296Z,58.81
2019-04-25T04:06:26.894Z,59.10
2019-04-25T04:08:57.483Z,58.53
2019-04-25T04:11:29.052Z,59.21
2019-04-25T04:13:59.615Z,58.31
2019-04-25T04:16:31.827Z,59.21
2019-04-25T04:19:03.997Z,59.62
2019-04-25T04:21:36.387Z,60.02
2019-04-25T04:24:11.744Z,59.02
2019-04-25T04:26:43.097Z,58.74
2019-04-25T04:29:14.948Z,59.13
2019-04-25T04:31:45.855Z,57.53
2019-04-25T04:34:17.020Z,58.98
2019-04-25T04:36:47.782Z,58.93
2019-04-25T04:39:18.821Z,59.02
2019-04-25T04:41:49.456Z,59.35
2019-04-25T04:44:20.139Z,59.63
2019-04-25T04:46:50.734Z,59.34
2019-04-25T04:49:21.299Z,59.25
2019-04-25T04:51:51.880Z,57.92
2019-04-25T04:54:23.097Z,58.85
2019-04-25T04:56:53.764Z,58.85
2019-04-25T04:59:24.888Z,59.38
2019-04-25T05:02:15.035Z,58.83
2019-04-25T05:04:46.370Z,58.38
2019-04-25T05:07:25.330Z,58.54
2019-04-25T05:09:55.939Z,58.22
2019-04-25T05:12:26.528Z,57.15
2019-04-25T05:14:57.115Z,56.82
2019-04-25T05:17:27.719Z,56.80
2019-04-25T05:19:59.006Z,58.69
2019-04-25T05:22:29.571Z,58.18
2019-04-25T05:25:00.158Z,58.75
2019-04-25T05:27:39.193Z,58.23
2019-04-25T05:30:09.905Z,57.58
2019-04-25T05:32:40.562Z,58.13
2019-04-25T05:35:11.275Z,57.20
2019-04-25T05:37:43.524Z,57.50
2019-04-25T05:40:15.823Z,57.10
2019-04-25T05:42:48.671Z,57.17
2019-04-25T05:45:21.266Z,56.78
2019-04-25T05:47:51.844Z,57.08
2019-04-25T05:50:24.005Z,56.42
2019-04-25T05:52:54.730Z,56.01
2019-04-25T05:55:25.311Z,55.96
2019-04-25T05:57:55.893Z,56.18
2019-04-25T06:00:27.129Z,56.26
2019-04-25T06:02:57.767Z,55.20
2019-04-25T06:05:28.442Z,55.97
2019-04-25T06:07:59.020Z,54.93
2019-04-25T06:10:33.963Z,48.43
2019-04-25T06:13:15.432Z,42.83
2019-04-25T06:15:48.632Z,40.56
2019-04-25T06:18:37.128Z,38.60
2019-04-25T06:21:09.515Z,36.87
2019-04-25T06:23:51.023Z,36.42
2019-04-25T06:26:31.015Z,36.29
2019-04-25T06:28:58.999Z,34.29
2019-04-25T06:31:26.928Z,33.05
2019-04-25T06:33:58.481Z,31.34
2019-04-25T06:36:29.090Z,31.08
2019-04-25T06:38:59.662Z,30.20
2019-04-25T06:41:30.240Z,29.22
2019-04-25T06:44:05.342Z,30.16
2019-04-25T06:46:49.645Z,28.74
2019-04-25T06:49:26.442Z,29.76
2019-04-25T06:51:57.112Z,32.44
2019-04-25T06:54:28.186Z,34.10
2019-04-25T06:56:58.703Z,33.61
2019-04-25T06:59:30.056Z,33.33
2019-04-25T07:02:00.745Z,33.70
2019-04-25T07:04:31.474Z,33.71
2019-04-25T07:07:10.659Z,32.70
2019-04-25T07:09:35.739Z,32.11
2019-04-25T07:12:06.535Z,31.74
2019-04-25T07:14:37.128Z,31.03
2019-04-25T07:17:07.720Z,30.83
2019-04-25T07:19:38.297Z,30.44
2019-04-25T07:22:08.882Z,29.53
2019-04-25T07:24:39.460Z,29.05
2019-04-25T07:27:28.412Z,27.78
2019-04-25T07:30:26.964Z,28.89
2019-04-25T07:33:07.226Z,29.10
2019-04-25T07:35:37.850Z,28.83
2019-04-25T07:38:08.413Z,29.36
2019-04-25T07:40:39.101Z,29.28
2019-04-25T07:43:10.154Z,29.54
2019-04-25T07:45:41.395Z,29.71
2019-04-25T07:48:13.857Z,30.00
2019-04-25T07:50:44.686Z,29.19
2019-04-25T07:53:15.325Z,29.08
2019-04-25T07:55:45.935Z,29.74
2019-04-25T07:58:16.568Z,29.00
2019-04-25T08:00:47.156Z,29.83
2019-04-25T08:03:17.956Z,29.53
2019-04-25T08:05:48.564Z,29.88
2019-04-25T08:08:19.714Z,28.82
2019-04-25T08:10:56.832Z,29.20
2019-04-25T08:13:30.032Z,28.70
2019-04-25T08:16:03.403Z,28.46
2019-04-25T08:18:35.085Z,29.00
2019-04-25T08:21:06.781Z,29.20
2019-04-25T08:23:38.936Z,28.80
2019-04-25T08:26:10.574Z,31.37
2019-04-25T08:28:54.275Z,30.35
2019-04-25T08:31:13.691Z,29.96
2019-04-25T08:33:46.513Z,29.26
2019-04-25T08:36:16.731Z,29.05
2019-04-25T08:38:47.531Z,29.54
2019-04-25T08:41:18.111Z,29.06
2019-04-25T08:43:48.680Z,29.92
2019-04-25T08:46:19.257Z,29.58
2019-04-25T08:49:09.873Z,27.95
2019-04-25T08:51:42.093Z,28.57
2019-04-25T08:54:18.835Z,28.63
2019-04-25T08:56:49.418Z,28.36
2019-04-25T08:59:44.487Z,29.00
2019-04-25T09:02:13.792Z,28.92
2019-04-25T09:05:02.017Z,29.55
2019-04-25T09:07:35.390Z,29.62
2019-04-25T09:10:06.703Z,29.76
2019-04-25T09:12:37.879Z,29.93
2019-04-25T09:15:08.870Z,30.00
2019-04-25T09:17:39.506Z,28.90
2019-04-25T09:20:13.860Z,28.94
2019-04-25T09:22:45.579Z,29.32
2019-04-25T09:25:16.928Z,29.45
2019-04-25T09:27:47.599Z,29.20
2019-04-25T09:30:18.367Z,28.96
2019-04-25T09:32:48.940Z,30.33
2019-04-25T09:35:20.249Z,29.66
2019-04-25T09:37:53.400Z,28.68
2019-04-25T09:40:24.391Z,28.66
2019-04-25T09:42:55.720Z,29.98
2019-04-25T09:45:36.108Z,28.82
2019-04-25T09:48:13.097Z,29.02
2019-04-25T09:50:49.425Z,29.03
2019-04-25T09:53:23.172Z,28.72
2019-04-25T09:56:06.427Z,28.60
2019-04-25T09:58:38.628Z,28.48
2019-04-25T10:01:13.885Z,28.59
2019-04-25T10:03:45.731Z,28.87
2019-04-25T10:06:18.025Z,29.96
2019-04-25T10:08:48.674Z,29.48
2019-04-25T10:11:19.334Z,30.97
2019-04-25T10:14:18.585Z,29.75
2019-04-25T10:16:49.185Z,29.53
2019-04-25T10:19:19.845Z,30.22
2019-04-25T10:21:50.452Z,30.43
2019-04-25T10:24:21.132Z,30.57
2019-04-25T10:26:53.559Z,31.16
2019-04-25T10:29:24.492Z,31.88
2019-04-25T10:31:55.792Z,33.10
2019-04-25T10:34:27.378Z,34.09
2019-04-25T10:36:57.963Z,33.65
2019-04-25T10:39:29.158Z,35.07
2019-04-25T10:41:59.878Z,34.65
2019-04-25T10:44:30.496Z,34.82
2019-04-25T10:47:01.142Z,34.84
2019-04-25T10:49:31.720Z,36.94
2019-04-25T10:52:02.432Z,36.19
2019-04-25T10:54:33.654Z,35.36
2019-04-25T10:57:06.597Z,38.00
2019-04-25T10:59:37.248Z,36.36
2019-04-25T11:02:09.902Z,36.61
2019-04-25T11:04:42.131Z,36.77
2019-04-25T11:07:13.644Z,37.26
2019-04-25T11:09:45.488Z,37.56
2019-04-25T11:12:17.011Z,35.97
2019-04-25T11:14:48.738Z,38.09
2019-04-25T11:17:19.536Z,37.31
2019-04-25T11:19:51.149Z,37.59
2019-04-25T11:22:21.730Z,37.25
2019-04-25T11:24:53.019Z,37.05
2019-04-25T11:27:24.612Z,35.66
2019-04-25T11:30:08.449Z,35.89
2019-04-25T11:32:28.430Z,36.13
2019-04-25T11:34:59.679Z,36.46
2019-04-25T11:37:34.206Z,36.39
2019-04-25T11:40:24.657Z,36.14
2019-04-25T11:42:55.238Z,35.92
2019-04-25T11:45:25.914Z,37.90
2019-04-25T11:47:56.496Z,36.27
2019-04-25T11:50:27.221Z,35.91
2019-04-25T11:52:58.825Z,36.09
2019-04-25T11:55:30.661Z,36.06
2019-04-25T11:58:01.252Z,36.93
2019-04-25T12:00:33.796Z,39.01
2019-04-25T12:03:04.731Z,38.00
2019-04-25T12:05:35.395Z,36.79
2019-04-25T12:08:07.019Z,37.08
2019-04-25T12:10:38.983Z,36.12
2019-04-25T12:13:09.569Z,37.92
2019-04-25T12:15:40.377Z,35.89
2019-04-25T12:18:10.965Z,36.40
2019-04-25T12:20:41.617Z,35.77
2019-04-25T12:23:12.206Z,35.55
2019-04-25T12:25:44.270Z,34.16
2019-04-25T12:28:14.944Z,34.98
2019-04-25T12:30:46.191Z,37.02
2019-04-25T12:33:21.495Z,35.65
2019-04-25T12:35:51.999Z,34.96
2019-04-25T12:38:24.615Z,35.49
2019-04-25T12:40:57.721Z,35.03
2019-04-25T12:43:29.920Z,34.77
2019-04-25T12:46:08.675Z,35.66
2019-04-25T12:48:39.320Z,36.96
2019-04-25T12:51:10.044Z,35.99
2019-04-25T12:53:40.989Z,36.09
2019-04-25T12:56:11.596Z,35.04
2019-04-25T12:58:43.460Z,35.42
2019-04-25T13:01:15.087Z,37.26
2019-04-25T13:03:45.693Z,36.92
2019-04-25T13:06:16.259Z,36.21
2019-04-25T13:08:46.829Z,37.06
2019-04-25T13:11:17.411Z,35.99
2019-04-25T13:13:47.999Z,36.70
2019-04-25T13:16:18.677Z,37.18
2019-04-25T13:18:49.253Z,37.00
2019-04-25T13:21:19.912Z,37.42
2019-04-25T13:23:50.564Z,36.40
2019-04-25T13:26:24.702Z,35.33
2019-04-25T13:29:11.953Z,35.27
2019-04-25T13:31:56.084Z,37.47
2019-04-25T13:34:36.270Z,35.59
2019-04-25T13:37:01.047Z,36.14
2019-04-25T13:39:31.858Z,35.40
2019-04-25T13:42:05.131Z,35.05
2019-04-25T13:44:34.786Z,35.21
2019-04-25T13:47:06.777Z,36.91
2019-04-25T13:49:37.444Z,35.71
2019-04-25T13:52:09.341Z,36.07
2019-04-25T13:54:40.055Z,36.40
2019-04-25T13:57:13.236Z,35.72
2019-04-25T13:59:45.857Z,36.01
2019-04-25T14:02:17.073Z,35.64
2019-04-25T14:04:47.671Z,36.87
2019-04-25T14:07:18.312Z,38.09
2019-04-25T14:09:48.976Z,35.71
2019-04-25T14:12:19.564Z,36.15
2019-04-25T14:14:50.196Z,36.25
2019-04-25T14:17:38.686Z,36.78
2019-04-25T14:20:24.869Z,37.37
2019-04-25T14:22:55.629Z,35.57
2019-04-25T14:25:28.492Z,35.81
2019-04-25T14:27:59.064Z,35.89
2019-04-25T14:30:32.580Z,34.25
2019-04-25T14:33:04.200Z,35.23
2019-04-25T14:35:34.833Z,35.09
2019-04-25T14:38:06.056Z,34.77
2019-04-25T14:40:36.714Z,34.79
2019-04-25T14:43:07.856Z,34.40
2019-04-25T14:45:44.487Z,35.17
2019-04-25T14:48:10.754Z,35.19
2019-04-25T14:50:41.361Z,34.54
2019-04-25T14:53:12.194Z,33.28
2019-04-25T14:55:44.506Z,34.48
2019-04-25T14:58:16.731Z,34.25
2019-04-25T15:00:48.950Z,36.07
2019-04-25T15:03:19.608Z,37.11
2019-04-25T15:05:50.200Z,36.50
2019-04-25T15:08:20.778Z,36.37
2019-04-25T15:10:51.377Z,38.22
2019-04-25T15:13:22.094Z,37.88
2019-04-25T15:15:52.689Z,36.38
2019-04-25T15:18:23.514Z,36.22
2019-04-25T15:20:54.491Z,37.03
2019-04-25T15:23:25.447Z,35.67
2019-04-25T15:25:56.005Z,35.82
2019-04-25T15:28:27.480Z,35.69
2019-04-25T15:30:58.168Z,35.94
2019-04-25T15:33:28.753Z,35.71
2019-04-25T15:36:06.966Z,35.75
2019-04-25T15:38:39.203Z,35.57
2019-04-25T15:41:17.591Z,35.50
2019-04-25T15:44:08.289Z,36.08
2019-04-25T15:46:40.517Z,36.32
2019-04-25T15:49:11.061Z,38.26
2019-04-25T15:51:41.750Z,39.08
2019-04-25T15:54:12.855Z,39.95
2019-04-25T15:56:43.428Z,38.71
2019-04-25T15:59:15.435Z,37.98
2019-04-25T16:01:47.525Z,38.29
2019-04-25T16:04:18.108Z,36.99
2019-04-25T16:06:50.170Z,37.10
2019-04-25T16:09:20.800Z,39.65
2019-04-25T16:11:51.360Z,40.24
2019-04-25T16:14:21.953Z,39.13
2019-04-25T16:16:52.579Z,39.45
2019-04-25T16:19:23.227Z,39.62
2019-04-25T16:21:53.801Z,40.53
2019-04-25T16:24:24.375Z,40.22
2019-04-25T16:26:54.967Z,39.64
2019-04-25T16:29:25.543Z,38.84
2019-04-25T16:31:57.951Z,39.80
2019-04-25T16:34:29.509Z,40.13
2019-04-25T16:37:00.906Z,39.96
2019-04-25T16:39:33.303Z,40.04
2019-04-25T16:42:04.192Z,40.32
2019-04-25T16:44:34.887Z,39.86
2019-04-25T16:47:05.646Z,39.17
2019-04-25T16:49:36.946Z,39.16
2019-04-25T16:52:09.587Z,39.27
2019-04-25T16:54:40.211Z,39.60
2019-04-25T16:57:11.962Z,39.89
2019-04-25T16:59:42.675Z,40.02
2019-04-25T17:02:14.373Z,40.38
2019-04-25T17:04:44.985Z,40.71
2019-04-25T17:07:15.765Z,41.25
2019-04-25T17:09:46.350Z,41.49
2019-04-25T17:12:17.364Z,41.75
2019-04-25T17:15:08.227Z,41.67
2019-04-25T17:17:40.447Z,41.65
2019-04-25T17:20:15.737Z,41.82
2019-04-25T17:22:46.465Z,41.77
2019-04-25T17:25:17.613Z,41.71
2019-04-25T17:27:48.428Z,41.80
2019-04-25T17:30:19.663Z,42.16
2019-04-25T17:32:54.877Z,42.21
2019-04-25T17:35:30.857Z,42.41
2019-04-25T17:38:06.897Z,43.13
2019-04-25T17:40:38.476Z,42.94
2019-04-25T17:43:11.201Z,43.40
2019-04-25T17:45:41.821Z,43.75
2019-04-25T17:48:12.404Z,44.07
2019-04-25T17:50:44.151Z,44.11
2019-04-25T17:53:14.740Z,44.42
2019-04-25T17:55:45.936Z,44.64
2019-04-25T17:58:16.661Z,45.56
2019-04-25T18:00:48.094Z,45.68
2019-04-25T18:03:18.757Z,46.32
2019-04-25T18:05:49.349Z,45.96
2019-04-25T18:08:19.932Z,46.45
2019-04-25T18:10:50.543Z,46.24
2019-04-25T18:13:23.858Z,46.56
2019-04-25T18:15:59.272Z,47.32
2019-04-25T18:18:41.421Z,48.15
2019-04-25T18:21:12.161Z,48.39
2019-04-25T18:24:00.620Z,48.71
2019-04-25T18:26:39.243Z,49.32
2019-04-25T18:29:26.038Z,49.52
2019-04-25T18:32:00.780Z,49.70
2019-04-25T18:34:40.059Z,50.62
2019-04-25T18:37:22.411Z,51.06
2019-04-25T18:40:09.881Z,50.65
2019-04-25T18:42:42.156Z,51.52
2019-04-25T18:45:14.738Z,52.13
2019-04-25T18:47:45.450Z,52.05
2019-04-25T18:50:17.935Z,52.31
2019-04-25T18:52:50.192Z,51.71
2019-04-25T18:55:29.269Z,52.41
2019-04-25T18:58:04.301Z,51.69
2019-04-25T19:00:49.431Z,51.69
2019-04-25T19:03:23.383Z,51.67
2019-04-25T19:06:02.077Z,52.13
2019-04-25T19:08:32.653Z,52.52
2019-04-25T19:11:03.602Z,52.88
2019-04-25T19:13:34.410Z,52.43
2019-04-25T19:16:05.226Z,53.13
2019-04-25T19:18:35.829Z,53.27
2019-04-25T19:21:06.526Z,53.64
2019-04-25T19:23:37.835Z,53.76
2019-04-25T19:26:08.664Z,53.20
2019-04-25T19:28:39.986Z,52.77
2019-04-25T19:31:12.308Z,53.84
2019-04-25T19:33:43.365Z,54.03
2019-04-25T19:36:14.028Z,53.70
2019-04-25T19:38:45.878Z,53.91
2019-04-25T19:41:19.773Z,53.79
2019-04-25T19:43:52.370Z,54.46
2019-04-25T19:46:25.059Z,54.86
2019-04-25T19:48:57.405Z,54.95
2019-04-25T19:51:28.146Z,54.54
2019-04-25T19:53:58.884Z,54.52
2019-04-25T19:56:29.475Z,54.46
2019-04-25T19:59:00.727Z,54.43
2019-04-25T20:01:31.965Z,54.32
2019-04-25T20:04:13.735Z,54.63
2019-04-25T20:07:03.412Z,55.13
2019-04-25T20:09:46.906Z,55.52
2019-04-25T20:12:18.659Z,55.41
2019-04-25T20:14:51.278Z,55.31
2019-04-25T20:17:22.897Z,55.38
2019-04-25T20:19:54.362Z,55.17
2019-04-25T20:22:25.320Z,55.15
2019-04-25T20:24:56.616Z,55.30
2019-04-25T20:27:27.268Z,55.26
2019-04-25T20:29:57.926Z,55.29
2019-04-25T20:32:29.082Z,55.84
2019-04-25T20:35:00.048Z,56.22
2019-04-25T20:37:31.161Z,57.09
2019-04-25T20:40:02.161Z,57.17
2019-04-25T20:42:32.967Z,57.33
2019-04-25T20:45:05.554Z,57.38
2019-04-25T20:47:36.163Z,57.13
2019-04-25T20:50:07.154Z,57.06
2019-04-25T20:52:38.644Z,57.05
2019-04-25T20:55:11.221Z,56.91
2019-04-25T20:57:42.058Z,57.27
2019-04-25T21:00:16.098Z,56.90
2019-04-25T21:02:48.343Z,55.75
2019-04-25T21:05:21.311Z,56.14
2019-04-25T21:07:53.317Z,55.99
2019-04-25T21:10:23.978Z,56.19
2019-04-25T21:12:54.613Z,56.24
2019-04-25T21:15:26.822Z,56.59
2019-04-25T21:18:01.100Z,56.60
2019-04-25T21:20:31.957Z,57.32
2019-04-25T21:23:04.255Z,56.87
2019-04-25T21:25:35.634Z,57.21
2019-04-25T21:28:07.878Z,56.92
2019-04-25T21:30:38.467Z,56.66
2019-04-25T21:33:09.188Z,56.97
2019-04-25T21:35:40.137Z,56.74
2019-04-25T21:38:10.836Z,57.11
2019-04-25T21:40:59.878Z,57.35
2019-04-25T21:43:32.298Z,57.58
2019-04-25T21:46:04.625Z,57.92
2019-04-25T21:48:35.765Z,57.63
2019-04-25T21:51:24.848Z,58.33
2019-04-25T21:53:55.551Z,57.59
2019-04-25T21:56:26.412Z,57.54
2019-04-25T21:58:57.751Z,57.32
2019-04-25T22:01:33.385Z,57.06
2019-04-25T22:04:05.204Z,56.43
2019-04-25T22:06:36.177Z,57.72
2019-04-25T22:09:10.128Z,57.08
2019-04-25T22:11:40.870Z,57.25
2019-04-25T22:14:12.654Z,56.90
2019-04-25T22:16:43.543Z,56.90
2019-04-25T22:19:14.494Z,56.67
2019-04-25T22:21:45.279Z,57.12
2019-04-25T22:24:17.142Z,56.99
2019-04-25T22:26:50.410Z,56.80
2019-04-25T22:29:22.568Z,57.71
2019-04-25T22:32:01.497Z,57.58
2019-04-25T22:34:52.059Z,57.43
2019-04-25T22:37:15.377Z,57.13
2019-04-25T22:39:46.453Z,57.64
2019-04-25T22:42:18.643Z,58.21
2019-04-25T22:44:49.507Z,58.86
2019-04-25T22:47:21.057Z,59.75
2019-04-25T22:49:51.752Z,59.42
2019-04-25T22:52:22.595Z,59.64
2019-04-25T22:54:53.252Z,59.79
2019-04-25T22:57:24.264Z,60.57
2019-04-25T22:59:55.130Z,60.45
2019-04-25T23:02:27.622Z,60.01
2019-04-25T23:05:12.884Z,59.54
2019-04-25T23:07:38.428Z,59.55
2019-04-25T23:10:10.331Z,58.89
2019-04-25T23:12:41.307Z,58.15
2019-04-25T23:15:13.057Z,57.26
2019-04-25T23:17:43.923Z,57.78
2019-04-25T23:20:14.820Z,57.62
2019-04-25T23:22:45.656Z,58.35
2019-04-25T23:25:18.185Z,58.08
2019-04-25T23:28:08.523Z,58.50
2019-04-25T23:30:41.425Z,58.86
2019-04-25T23:33:12.597Z,58.85
2019-04-25T23:35:45.102Z,58.29
2019-04-25T23:38:16.757Z,58.42
2019-04-25T23:40:47.327Z,58.73
2019-04-25T23:43:18.170Z,58.44
2019-04-25T23:45:48.794Z,58.43
2019-04-25T23:48:20.509Z,58.45
2019-04-25T23:50:53.617Z,57.91
2019-04-25T23:53:23.695Z,58.57
2019-04-25T23:55:54.278Z,58.55
2019-04-25T23:58:24.924Z,59.07
